Time;durP1;ratioP1;P1;durP2;ratioP2;P2;SDS_P1;SDS_P2;PMS_P1;PMS_P2;Temp;Humidity;BMP_temperature;BMP_pressure;BME280_temperature;BME280_humidity;BME280_pressure;Samples;Min_cycle;Max_cycle;Signal;HPM_P1;HPM_P2
2022/03/11 00:00:37;;;;;;;1.60;1.50;;;2.30;99.90;;;;;;4954506;28;20656;-74
2022/03/11 00:03:03;;;;;;;4.57;1.67;;;2.20;99.90;;;;;;4954656;28;20020;-74
2022/03/11 00:05:29;;;;;;;3.63;1.38;;;2.10;99.90;;;;;;4954399;29;20854;-74
2022/03/11 00:07:55;;;;;;;2.45;1.50;;;2.10;99.90;;;;;;4954449;29;20030;-74
2022/03/11 00:10:22;;;;;;;2.78;1.55;;;2.10;99.90;;;;;;4954332;28;20047;-74
2022/03/11 00:12:48;;;;;;;2.05;1.33;;;2.20;99.90;;;;;;4954237;28;20023;-75
2022/03/11 00:15:14;;;;;;;1.40;1.30;;;2.20;99.90;;;;;;4954246;29;20371;-76
2022/03/11 00:17:41;;;;;;;2.33;1.35;;;2.20;99.90;;;;;;4954213;28;20460;-76
2022/03/11 00:20:07;;;;;;;1.67;1.40;;;2.20;99.90;;;;;;4953896;28;20063;-75
2022/03/11 00:22:34;;;;;;;2.50;1.52;;;2.10;99.90;;;;;;4954273;28;20090;-75
2022/03/11 00:25:00;;;;;;;3.22;1.58;;;2.10;99.90;;;;;;4954462;29;20024;-75
2022/03/11 00:27:26;;;;;;;1.20;1.10;;;2.10;99.90;;;;;;4954151;29;20489;-75
2022/03/11 00:29:51;;;;;;;1.40;1.13;;;2.10;99.90;;;;;;4953983;29;20023;-75
2022/03/11 00:32:17;;;;;;;1.73;1.40;;;2.10;99.90;;;;;;4954128;29;20032;-74
2022/03/11 00:34:43;;;;;;;1.48;1.23;;;2.10;99.90;;;;;;4953773;28;20031;-74
2022/03/11 00:37:08;;;;;;;1.33;1.20;;;2.10;99.90;;;;;;4953706;28;20041;-74
2022/03/11 00:39:34;;;;;;;2.88;1.33;;;2.10;99.90;;;;;;4953824;29;20542;-74
2022/03/11 00:42:00;;;;;;;2.38;1.30;;;2.10;99.90;;;;;;4953804;29;20023;-74
2022/03/11 00:44:26;;;;;;;1.40;1.20;;;2.10;99.90;;;;;;4953771;29;20032;-74
2022/03/11 00:46:51;;;;;;;1.70;1.23;;;2.10;99.90;;;;;;4953998;28;20027;-74
2022/03/11 00:49:17;;;;;;;3.55;1.20;;;2.10;99.90;;;;;;4953774;29;20429;-74
2022/03/11 00:51:43;;;;;;;1.70;1.45;;;2.10;99.90;;;;;;4953945;29;20023;-74
2022/03/11 00:54:08;;;;;;;2.22;1.55;;;2.10;99.90;;;;;;4953603;29;20476;-74
2022/03/11 00:56:34;;;;;;;1.50;1.38;;;2.10;99.90;;;;;;4953610;29;20031;-74
2022/03/11 00:59:00;;;;;;;2.92;1.40;;;2.10;99.90;;;;;;4953651;29;20027;-74
2022/03/11 01:01:25;;;;;;;1.20;1.10;;;2.10;99.90;;;;;;4953890;29;20031;-74
2022/03/11 01:03:51;;;;;;;1.20;1.10;;;2.10;99.90;;;;;;4953498;29;20488;-75
2022/03/11 01:06:18;;;;;;;2.40;1.23;;;2.10;99.90;;;;;;4953640;28;20027;-76
2022/03/11 01:08:44;;;;;;;1.58;1.30;;;2.10;99.90;;;;;;4953473;28;20483;-75
2022/03/11 01:11:11;;;;;;;2.03;1.30;;;2.20;99.90;;;;;;4953884;29;20027;-76
2022/03/11 01:13:38;;;;;;;6.90;1.40;;;2.20;99.90;;;;;;4953387;28;20066;-75
2022/03/11 01:16:04;;;;;;;2.97;1.45;;;2.20;99.90;;;;;;4953576;28;20403;-75
2022/03/11 01:18:31;;;;;;;1.30;1.20;;;2.20;99.90;;;;;;4953624;28;20028;-75
2022/03/11 01:20:56;;;;;;;1.65;1.38;;;2.20;99.90;;;;;;4953589;28;20022;-75
2022/03/11 01:23:22;;;;;;;2.58;1.38;;;2.20;99.90;;;;;;4953471;28;20035;-75
2022/03/11 01:25:48;;;;;;;1.75;1.40;;;2.20;99.90;;;;;;4953362;29;20034;-75
2022/03/11 01:28:14;;;;;;;1.77;1.35;;;2.20;99.90;;;;;;4953509;28;20031;-75
2022/03/11 01:30:40;;;;;;;1.75;1.40;;;2.20;99.90;;;;;;4953643;28;20478;-75
2022/03/11 01:33:06;;;;;;;3.00;1.27;;;2.30;99.90;;;;;;4957229;28;20490;-75
2022/03/11 01:35:32;;;;;;;1.52;1.30;;;2.30;99.90;;;;;;4957007;28;20043;-74
2022/03/11 01:37:58;;;;;;;1.63;1.30;;;2.30;99.90;;;;;;4956990;28;20055;-74
2022/03/11 01:40:24;;;;;;;2.38;1.30;;;2.30;99.90;;;;;;4957169;29;20479;-75
2022/03/11 01:42:50;;;;;;;2.80;1.33;;;2.30;99.90;;;;;;4956810;28;20023;-75
2022/03/11 01:45:16;;;;;;;1.85;1.30;;;2.30;99.90;;;;;;4957023;28;20034;-74
2022/03/11 01:47:42;;;;;;;2.22;1.40;;;2.30;99.90;;;;;;4956768;28;20143;-72
2022/03/11 01:50:08;;;;;;;1.40;1.30;;;2.30;99.90;;;;;;4944523;29;20107;-71
2022/03/11 01:52:34;;;;;;;1.33;1.10;;;2.30;99.90;;;;;;4937723;29;20023;-71
2022/03/11 01:55:00;;;;;;;1.85;1.50;;;2.40;99.90;;;;;;4937776;29;20044;-71
2022/03/11 01:57:26;;;;;;;2.42;1.48;;;2.40;99.90;;;;;;4937804;29;20241;-71
2022/03/11 01:59:52;;;;;;;4.63;1.20;;;2.40;99.90;;;;;;4937500;29;20023;-71
2022/03/11 02:02:18;;;;;;;1.73;1.48;;;2.40;99.90;;;;;;4937361;29;20087;-70
2022/03/11 02:04:43;;;;;;;2.35;1.23;;;2.50;99.90;;;;;;4937586;29;20070;-71
2022/03/11 02:07:10;;;;;;;3.00;1.40;;;2.50;99.90;;;;;;4937580;29;20577;-71
2022/03/11 02:09:36;;;;;;;2.00;1.25;;;2.50;99.90;;;;;;4937210;29;20483;-71
2022/03/11 02:12:03;;;;;;;2.03;1.25;;;2.50;99.90;;;;;;4937604;29;20111;-71
2022/03/11 02:14:28;;;;;;;1.40;1.08;;;2.50;99.90;;;;;;4937068;29;20386;-72
2022/03/11 02:16:54;;;;;;;2.13;1.30;;;2.50;99.90;;;;;;4937282;29;20107;-72
2022/03/11 02:19:20;;;;;;;1.73;1.40;;;2.50;99.90;;;;;;4937298;29;20034;-72
2022/03/11 02:21:49;;;;;;;1.38;1.00;;;2.60;99.90;;;;;;4937304;29;20472;-72
2022/03/11 02:24:16;;;;;;;1.23;1.13;;;2.60;99.90;;;;;;4937069;29;20051;-72
2022/03/11 02:55:45;;;;;;;1.92;1.05;;;2.70;99.90;;;;;;4935824;29;20052;-72
2022/03/11 02:58:11;;;;;;;1.35;1.23;;;2.70;99.90;;;;;;4936754;29;20381;-73
2022/03/11 03:00:37;;;;;;;2.42;1.40;;;2.70;99.90;;;;;;4936773;29;20514;-73
2022/03/11 03:03:03;;;;;;;4.50;1.40;;;2.70;99.90;;;;;;4936474;29;20031;-73
2022/03/11 03:36:33;;;;;;;1.77;1.25;;;2.70;99.90;;;;;;5972809;23;20017;-76
2022/03/11 03:38:59;;;;;;;2.85;1.23;;;2.70;99.90;;;;;;4952089;28;20035;-76
2022/03/11 03:41:25;;;;;;;1.67;1.23;;;2.80;99.90;;;;;;4955096;28;20027;-75
2022/03/11 03:43:50;;;;;;;1.02;0.93;;;2.80;99.90;;;;;;4954682;29;20107;-74
2022/03/11 03:46:16;;;;;;;1.95;1.33;;;2.80;99.90;;;;;;4954948;29;20082;-76
2022/03/11 03:48:42;;;;;;;1.50;1.05;;;2.80;99.90;;;;;;4954931;28;20027;-76
2022/03/11 03:51:08;;;;;;;1.67;1.40;;;2.80;99.90;;;;;;4954902;29;20090;-76
2022/03/11 03:53:33;;;;;;;1.33;1.13;;;2.80;99.90;;;;;;4953953;28;20156;-76
2022/03/11 03:55:59;;;;;;;1.50;1.40;;;2.80;99.90;;;;;;4954702;29;20036;-76
2022/03/11 03:58:25;;;;;;;1.38;1.23;;;2.80;99.90;;;;;;4954502;29;20463;-76
2022/03/11 04:00:50;;;;;;;1.60;1.20;;;2.90;99.90;;;;;;4954474;29;20027;-74
2022/03/11 04:03:16;;;;;;;2.38;1.45;;;2.90;99.90;;;;;;4953138;29;20039;-74
2022/03/11 04:05:42;;;;;;;1.30;1.20;;;2.90;99.90;;;;;;4954423;29;20027;-75
2022/03/11 04:08:08;;;;;;;1.73;1.30;;;2.90;99.90;;;;;;4954318;28;20023;-75
2022/03/11 04:10:34;;;;;;;2.25;1.30;;;2.90;99.90;;;;;;4954403;28;20486;-75
2022/03/11 04:13:00;;;;;;;2.78;1.10;;;2.90;99.90;;;;;;4954170;28;20132;-75
2022/03/11 04:15:25;;;;;;;1.95;1.27;;;2.90;99.90;;;;;;4953032;29;20114;-75
2022/03/11 04:17:51;;;;;;;1.73;1.40;;;3.00;99.90;;;;;;4954188;29;20486;-75
2022/03/11 04:20:17;;;;;;;1.40;1.10;;;3.00;99.90;;;;;;4954501;28;20031;-75
2022/03/11 04:22:44;;;;;;;2.08;1.25;;;3.00;99.90;;;;;;4954205;28;20035;-75
2022/03/11 04:25:14;;;;;;;1.88;1.40;;;3.10;99.90;;;;;;4954308;28;20027;-75
2022/03/11 04:27:41;;;;;;;1.60;1.40;;;3.10;99.90;;;;;;4954306;28;20031;-76
2022/03/11 04:30:08;;;;;;;3.15;1.42;;;3.10;99.90;;;;;;4954333;28;20023;-76
2022/03/11 04:32:33;;;;;;;1.48;1.38;;;3.10;99.90;;;;;;4953880;28;20541;-76
2022/03/11 04:34:59;;;;;;;2.05;1.33;;;3.10;99.90;;;;;;4955304;29;20042;-76
2022/03/11 04:37:25;;;;;;;1.33;1.23;;;3.10;99.90;;;;;;4953638;28;20051;-76
2022/03/11 04:39:50;;;;;;;2.72;1.50;;;3.10;99.90;;;;;;4954050;28;20486;-76
2022/03/11 04:42:16;;;;;;;1.60;1.50;;;3.10;99.90;;;;;;4953814;29;20120;-76
2022/03/11 04:44:42;;;;;;;2.47;1.38;;;3.10;99.90;;;;;;4952781;29;20506;-76
2022/03/11 04:47:08;;;;;;;1.55;1.20;;;3.10;99.90;;;;;;4953776;29;20058;-74
2022/03/11 04:49:33;;;;;;;1.40;1.30;;;3.10;99.90;;;;;;4953788;29;20085;-75
2022/03/11 04:51:59;;;;;;;1.88;1.30;;;3.10;99.90;;;;;;4954010;28;20383;-75
2022/03/11 04:54:25;;;;;;;2.10;1.30;;;3.10;99.90;;;;;;4952405;29;20057;-76
2022/03/11 04:56:50;;;;;;;1.30;1.10;;;3.10;99.90;;;;;;4953791;29;20068;-76
2022/03/11 04:59:16;;;;;;;1.30;1.17;;;3.10;99.90;;;;;;4953921;28;20030;-73
2022/03/11 05:01:42;;;;;;;5.40;1.80;;;3.10;99.90;;;;;;4952462;29;20023;-74
2022/03/11 05:04:07;;;;;;;1.73;1.48;;;3.10;99.90;;;;;;4953541;28;20039;-75
2022/03/11 05:06:33;;;;;;;1.48;1.10;;;3.10;99.90;;;;;;4957062;28;20107;-74
2022/03/11 05:08:59;;;;;;;2.10;1.65;;;3.10;99.90;;;;;;4957736;29;20023;-73
2022/03/11 05:11:24;;;;;;;3.15;1.70;;;3.00;99.90;;;;;;4957669;29;20104;-72
2022/03/11 05:13:50;;;;;;;1.58;1.40;;;3.00;99.90;;;;;;4957333;29;20027;-72
2022/03/11 05:16:16;;;;;;;1.85;1.35;;;3.00;99.90;;;;;;4957426;29;20037;-72
2022/03/11 05:18:42;;;;;;;2.58;1.70;;;3.00;99.90;;;;;;4957298;29;20106;-72
2022/03/11 05:21:07;;;;;;;2.80;1.25;;;3.00;99.90;;;;;;4957291;29;20031;-72
2022/03/11 05:23:33;;;;;;;3.08;1.70;;;3.10;99.90;;;;;;4957505;29;20027;-73
2022/03/11 05:25:59;;;;;;;2.20;1.65;;;3.00;99.90;;;;;;4957256;28;20594;-73
2022/03/11 05:28:25;;;;;;;2.53;1.70;;;3.00;99.90;;;;;;4956874;29;20106;-72
2022/03/11 05:30:51;;;;;;;2.38;1.60;;;3.00;99.90;;;;;;4957319;29;20023;-72
2022/03/11 05:33:17;;;;;;;4.65;2.63;;;3.00;99.90;;;;;;4956956;29;20029;-72
2022/03/11 05:35:42;;;;;;;4.60;2.28;;;3.00;99.90;;;;;;4957011;29;20035;-73
2022/03/11 05:38:08;;;;;;;2.92;1.70;;;3.00;99.90;;;;;;4956701;28;20127;-74
2022/03/11 05:40:34;;;;;;;2.97;1.10;;;2.90;99.90;;;;;;4957349;29;20035;-74
2022/03/11 05:43:00;;;;;;;2.38;0.75;;;3.80;99.90;;;;;;4957037;28;20514;-73
2022/03/11 05:45:26;;;;;;;6.50;1.50;;;5.90;99.90;;;;;;4955212;29;20035;-73
2022/03/11 05:47:52;;;;;;;4.63;1.50;;;6.70;99.90;;;;;;4956743;28;20078;-70
2022/03/11 05:50:18;;;;;;;3.75;1.75;;;6.00;99.90;;;;;;4955448;29;20031;-76
2022/03/11 05:52:44;;;;;;;720.38;337.27;;;5.40;99.90;;;;;;4937167;29;20494;-74
2022/03/11 05:55:11;;;;;;;521.42;206.35;;;4.90;99.90;;;;;;4935869;29;20032;-73
2022/03/11 05:57:37;;;;;;;59.80;25.60;;;4.60;99.90;;;;;;4965793;28;20024;-75
2022/03/11 06:00:04;;;;;;;12.65;8.40;;;4.30;99.90;;;;;;4937443;29;20400;-79
2022/03/11 06:02:30;;;;;;;144.75;52.28;;;4.10;99.90;;;;;;4954033;29;20443;-71
2022/03/11 06:04:56;;;;;;;41.75;17.75;;;4.00;99.90;;;;;;4955495;29;20059;-70
2022/03/11 06:07:21;;;;;;;54.08;26.88;;;3.90;99.90;;;;;;4951226;29;20066;-70
2022/03/11 06:09:47;;;;;;;48.90;25.65;;;3.80;99.90;;;;;;4950903;29;20031;-70
2022/03/11 06:12:14;;;;;;;37.70;21.02;;;3.80;99.90;;;;;;4945099;29;20031;-71
2022/03/11 06:14:39;;;;;;;17.05;8.65;;;3.80;99.90;;;;;;4955347;28;20122;-70
2022/03/11 06:17:05;;;;;;;10.50;5.57;;;3.80;99.90;;;;;;4955458;28;20114;-70
2022/03/11 06:19:31;;;;;;;4.18;2.42;;;3.80;99.90;;;;;;4956274;28;20027;-70
2022/03/11 06:21:57;;;;;;;4.47;2.20;;;3.80;99.90;;;;;;4956563;28;20020;-67
2022/03/11 06:24:23;;;;;;;2.95;1.90;;;3.70;99.90;;;;;;4956215;28;20029;-68
2022/03/11 06:26:49;;;;;;;4.28;2.00;;;3.80;99.90;;;;;;4956275;28;20032;-74
2022/03/11 06:29:15;;;;;;;1.75;1.60;;;3.80;99.90;;;;;;4954669;29;20030;-69
2022/03/11 06:31:41;;;;;;;4.20;2.00;;;3.80;99.90;;;;;;4956214;28;20563;-70
2022/03/11 06:34:06;;;;;;;3.38;1.83;;;3.80;99.90;;;;;;4955810;29;20390;-69
2022/03/11 06:36:34;;;;;;;2.83;1.88;;;3.90;99.90;;;;;;4955791;28;20082;-72
2022/03/11 06:39:00;;;;;;;5.43;2.00;;;3.80;99.90;;;;;;4970835;28;20027;-72
2022/03/11 06:41:26;;;;;;;2.45;1.70;;;3.90;99.90;;;;;;4954448;29;20390;-73
2022/03/11 06:43:52;;;;;;;1.65;1.55;;;3.90;99.90;;;;;;4955830;29;20031;-73
2022/03/11 06:46:18;;;;;;;1.63;1.52;;;3.90;99.90;;;;;;4956069;29;20034;-73
2022/03/11 06:48:44;;;;;;;2.15;1.70;;;4.00;99.90;;;;;;4955931;28;20442;-73
2022/03/11 06:51:09;;;;;;;1.33;1.20;;;4.00;99.90;;;;;;4955689;29;20063;-72
2022/03/11 06:53:36;;;;;;;1.92;1.35;;;4.10;99.90;;;;;;4955787;29;20035;-73
2022/03/11 06:56:01;;;;;;;3.00;1.48;;;4.10;99.90;;;;;;4955706;28;20482;-73
2022/03/11 06:58:28;;;;;;;1.58;1.45;;;4.20;99.90;;;;;;4955662;28;20034;-73
2022/03/11 07:00:54;;;;;;;2.30;1.60;;;4.20;99.90;;;;;;4955661;28;20031;-73
2022/03/11 07:03:19;;;;;;;1.60;1.50;;;4.30;99.90;;;;;;4955719;29;20019;-72
2022/03/11 07:05:45;;;;;;;1.08;1.00;;;4.30;99.90;;;;;;4955485;29;20019;-73
2022/03/11 07:08:12;;;;;;;1.30;1.20;;;4.40;99.90;;;;;;4955283;29;20032;-69
2022/03/11 07:10:38;;;;;;;2.55;1.60;;;4.40;99.90;;;;;;4955788;28;20027;-72
2022/03/11 07:13:04;;;;;;;7.22;1.88;;;4.50;99.90;;;;;;4955378;29;20464;-71
2022/03/11 07:15:30;;;;;;;3.03;1.80;;;4.60;99.90;;;;;;4955122;29;20039;-72
2022/03/11 07:17:55;;;;;;;1.92;1.40;;;5.50;99.90;;;;;;4955164;28;20039;-75
2022/03/11 07:20:21;;;;;;;3.58;1.45;;;6.30;99.90;;;;;;4954779;28;20039;-75
2022/03/11 07:22:48;;;;;;;2.00;1.80;;;6.10;99.90;;;;;;4954401;28;20426;-69
2022/03/11 07:25:17;;;;;;;3.60;1.45;;;5.80;99.90;;;;;;4954349;28;20481;-71
2022/03/11 07:27:45;;;;;;;3.85;1.30;;;5.60;99.90;;;;;;4954793;28;20066;-71
2022/03/11 07:30:12;;;;;;;1.67;1.30;;;5.50;99.90;;;;;;4952513;28;20067;-74
2022/03/11 07:32:38;;;;;;;2.22;1.30;;;5.40;99.90;;;;;;4954116;28;20497;-72
2022/03/11 07:35:05;;;;;;;24.55;10.50;;;5.40;99.90;;;;;;4953381;29;20067;-77
2022/03/11 07:37:30;;;;;;;8.15;4.60;;;5.40;99.90;;;;;;4954548;28;20581;-74
2022/03/11 07:39:56;;;;;;;3.38;2.30;;;5.40;99.90;;;;;;4952961;29;20031;-75
2022/03/11 07:42:22;;;;;;;1.92;1.30;;;5.40;99.90;;;;;;4937165;29;20040;-75
2022/03/11 07:44:47;;;;;;;1.42;1.33;;;5.40;99.90;;;;;;4949579;29;20119;-81
2022/03/11 07:47:13;;;;;;;2.03;1.30;;;5.40;99.90;;;;;;4937775;29;20027;-68
2022/03/11 07:49:48;;;;;;;2.58;1.35;;;5.30;99.90;;;;;;5075451;28;20389;-69
2022/03/11 07:52:15;;;;;;;2.83;1.42;;;5.40;99.90;;;;;;5077797;28;20108;-68
2022/03/11 07:54:42;;;;;;;1.77;1.40;;;5.30;99.90;;;;;;5082768;28;20032;-72
2022/03/11 07:57:09;;;;;;;10.20;1.95;;;5.30;99.90;;;;;;5069532;28;20033;-73
2022/03/11 07:59:37;;;;;;;2.90;1.48;;;5.40;99.90;;;;;;5066344;28;20021;-73
2022/03/11 08:02:06;;;;;;;2.85;1.30;;;5.40;99.90;;;;;;5056599;28;20029;-72
2022/03/11 08:04:32;;;;;;;4.20;1.40;;;5.40;99.90;;;;;;5048799;28;20484;-73
2022/03/11 08:07:06;;;;;;;2.67;1.20;;;5.40;99.90;;;;;;5048846;28;20036;-73
2022/03/11 08:09:33;;;;;;;1.63;1.38;;;5.50;99.90;;;;;;5053086;28;20032;-72
2022/03/11 08:11:59;;;;;;;4.85;1.20;;;5.50;99.90;;;;;;5068711;28;20024;-72
2022/03/11 08:14:24;;;;;;;4.05;1.50;;;5.50;99.90;;;;;;5068511;28;20388;-72
2022/03/11 08:16:50;;;;;;;4.75;1.40;;;5.50;99.90;;;;;;5068668;28;20028;-72
2022/03/11 08:19:16;;;;;;;2.60;1.50;;;5.60;99.90;;;;;;5068626;28;20044;-74
2022/03/11 08:21:42;;;;;;;2.15;1.17;;;5.70;99.90;;;;;;5068487;28;20522;-70
2022/03/11 08:24:07;;;;;;;2.25;1.67;;;5.70;99.90;;;;;;5067322;28;20027;-70
2022/03/11 08:26:33;;;;;;;2.83;1.48;;;5.70;99.90;;;;;;5068362;28;20024;-70
2022/03/11 08:28:59;;;;;;;2.65;1.50;;;6.90;99.90;;;;;;5068425;28;20028;-71
2022/03/11 08:31:24;;;;;;;2.63;1.58;;;7.30;99.90;;;;;;5067275;28;20078;-71
2022/03/11 08:33:50;;;;;;;2.00;1.30;;;7.20;99.90;;;;;;5068641;28;20029;-71
2022/03/11 08:36:16;;;;;;;2.63;1.50;;;6.90;99.90;;;;;;5068568;28;20021;-71
2022/03/11 08:38:42;;;;;;;2.75;1.63;;;6.70;99.90;;;;;;5068525;28;20037;-70
2022/03/11 08:41:09;;;;;;;3.10;1.63;;;6.50;99.90;;;;;;5068481;28;20025;-71
2022/03/11 08:43:38;;;;;;;2.10;1.67;;;6.40;99.90;;;;;;5068256;28;20025;-71
2022/03/11 08:46:13;;;;;;;2.95;1.38;;;6.40;99.90;;;;;;5068030;28;20029;-71
2022/03/11 08:48:41;;;;;;;3.60;1.80;;;6.40;99.90;;;;;;5067637;28;20063;-70
2022/03/11 08:51:06;;;;;;;2.55;1.48;;;6.40;99.90;;;;;;5068068;28;20147;-71
2022/03/11 08:53:32;;;;;;;1.95;1.60;;;6.40;99.90;;;;;;5067929;28;20059;-71
2022/03/11 08:55:58;;;;;;;1.58;1.08;;;6.40;99.90;;;;;;5067954;28;20422;-71
2022/03/11 08:58:24;;;;;;;2.97;1.38;;;6.40;99.90;;;;;;5067596;28;20031;-71
2022/03/11 09:00:50;;;;;;;1.92;1.42;;;6.40;99.90;;;;;;5054903;28;20388;-71
2022/03/11 09:03:16;;;;;;;2.17;1.60;;;6.50;99.90;;;;;;5054611;28;20094;-71
2022/03/11 09:05:41;;;;;;;4.50;1.90;;;6.50;99.90;;;;;;5054473;28;20032;-71
2022/03/11 09:08:08;;;;;;;4.60;1.80;;;6.60;99.90;;;;;;5053106;28;20041;-71
2022/03/11 09:10:34;;;;;;;7.30;1.73;;;6.60;99.90;;;;;;5053001;28;20369;-71
2022/03/11 09:13:01;;;;;;;4.13;2.20;;;6.60;99.90;;;;;;5054777;28;20044;-71
2022/03/11 09:15:26;;;;;;;6.13;2.00;;;6.60;99.90;;;;;;5054503;28;20071;-71
2022/03/11 09:17:52;;;;;;;7.43;2.47;;;6.70;99.90;;;;;;5054377;28;20416;-70
2022/03/11 09:20:18;;;;;;;6.93;2.15;;;6.80;99.90;;;;;;5054115;28;20480;-71
2022/03/11 09:22:44;;;;;;;3.95;2.05;;;6.80;99.90;;;;;;5054588;28;20033;-71
2022/03/11 09:25:11;;;;;;;4.78;2.13;;;6.90;99.90;;;;;;5054413;28;20040;-71
2022/03/11 09:27:37;;;;;;;5.63;2.10;;;6.90;99.90;;;;;;5052371;28;20021;-71
2022/03/11 09:30:07;;;;;;;3.28;2.03;;;7.40;99.90;;;;;;5054289;28;20029;-71
2022/03/11 09:32:34;;;;;;;2.72;2.08;;;7.30;99.90;;;;;;5054199;28;20404;-71
2022/03/11 09:34:59;;;;;;;3.53;2.00;;;7.30;99.90;;;;;;5053883;28;20029;-70
2022/03/11 09:37:27;;;;;;;6.47;2.35;;;7.20;99.90;;;;;;5053925;28;20036;-70
2022/03/11 09:39:53;;;;;;;3.63;2.40;;;7.20;99.90;;;;;;5054029;28;20032;-71
2022/03/11 09:42:20;;;;;;;3.75;2.13;;;7.20;99.90;;;;;;5054025;28;20098;-69
2022/03/11 09:44:54;;;;;;;5.70;2.17;;;7.30;99.90;;;;;;5053821;28;20472;-69
2022/03/11 09:47:21;;;;;;;4.45;2.20;;;7.30;99.90;;;;;;5053515;28;20543;-69
2022/03/11 09:49:48;;;;;;;4.47;2.30;;;7.30;99.90;;;;;;5048575;28;20033;-69
2022/03/11 09:52:15;;;;;;;2.90;2.08;;;7.30;99.90;;;;;;5033469;28;20030;-69
2022/03/11 09:54:41;;;;;;;5.03;2.38;;;7.30;99.90;;;;;;5050078;28;20032;-69
2022/03/11 09:57:07;;;;;;;3.00;1.95;;;7.30;99.90;;;;;;5052949;28;20017;-69
2022/03/11 09:59:33;;;;;;;5.20;2.08;;;7.40;99.90;;;;;;5053583;28;20038;-69
2022/03/11 10:01:58;;;;;;;4.40;1.85;;;7.40;99.90;;;;;;5052254;28;20021;-69
2022/03/11 10:04:25;;;;;;;4.30;1.80;;;8.10;99.90;;;;;;5053151;28;20024;-70
2022/03/11 10:06:54;;;;;;;3.05;1.40;;;8.50;99.90;;;;;;5053236;28;20423;-70
2022/03/11 10:09:20;;;;;;;6.50;1.90;;;8.50;99.90;;;;;;5053226;28;20044;-70
2022/03/11 10:11:49;;;;;;;3.53;2.13;;;8.70;99.90;;;;;;5038759;28;20032;-70
2022/03/11 10:14:16;;;;;;;2.78;1.45;;;8.50;99.90;;;;;;5033944;28;20026;-71
2022/03/11 10:16:46;;;;;;;2.83;1.52;;;8.40;99.90;;;;;;5035736;28;20026;-71
2022/03/11 10:19:13;;;;;;;1.80;1.52;;;8.30;99.90;;;;;;5032329;28;20032;-71
2022/03/11 10:21:42;;;;;;;2.63;1.20;;;8.30;99.90;;;;;;5035549;28;20400;-72
2022/03/11 10:24:19;;;;;;;2.08;1.35;;;8.20;99.90;;;;;;5033260;28;20049;-71
2022/03/11 10:26:47;;;;;;;1.58;1.45;;;8.20;99.90;;;;;;5033228;28;20108;-71
2022/03/11 10:29:22;;;;;;;3.38;1.50;;;8.20;99.90;;;;;;5047951;28;20043;-68
2022/03/11 10:31:51;;;;;;;3.03;1.38;;;8.20;99.90;;;;;;5052479;28;20090;-70
2022/03/11 10:34:25;;;;;;;3.63;1.60;;;8.20;99.90;;;;;;5032774;28;20076;-70
2022/03/11 10:36:53;;;;;;;2.53;1.60;;;8.20;99.90;;;;;;5033055;28;20030;-70
2022/03/11 10:39:23;;;;;;;1.80;1.30;;;8.10;99.90;;;;;;5032981;28;20577;-68
2022/03/11 10:41:50;;;;;;;2.08;1.58;;;8.10;99.90;;;;;;5032677;28;20018;-68
2022/03/11 10:44:21;;;;;;;2.30;1.30;;;8.10;99.90;;;;;;5032524;28;20484;-69
2022/03/11 10:46:48;;;;;;;4.85;1.40;;;8.10;99.90;;;;;;5031322;28;20021;-69
2022/03/11 10:49:26;;;;;;;2.72;1.40;;;8.00;99.90;;;;;;5032424;28;20045;-74
2022/03/11 10:51:54;;;;;;;2.22;1.30;;;8.10;99.90;;;;;;5032954;28;20025;-72
2022/03/11 10:54:24;;;;;;;2.63;1.30;;;8.10;99.90;;;;;;5032378;28;20498;-72
2022/03/11 10:56:50;;;;;;;1.20;1.10;;;8.10;99.90;;;;;;5032652;28;20067;-72
2022/03/11 10:59:22;;;;;;;2.97;1.50;;;8.10;99.90;;;;;;5032414;28;20030;-72
2022/03/11 11:01:50;;;;;;;2.08;1.35;;;8.10;99.90;;;;;;5032381;28;20029;-72
2022/03/11 11:04:17;;;;;;;2.95;1.13;;;8.10;99.90;;;;;;5030970;28;20067;-72
2022/03/11 11:06:44;;;;;;;2.75;1.20;;;8.00;99.90;;;;;;5032370;28;20029;-72
2022/03/11 11:09:11;;;;;;;4.28;1.08;;;8.00;99.90;;;;;;5032629;28;20065;-72
2022/03/11 11:11:38;;;;;;;2.25;1.20;;;8.00;99.90;;;;;;5032198;28;20036;-72
2022/03/11 11:14:07;;;;;;;1.38;1.10;;;8.00;99.90;;;;;;5032139;28;20025;-72
2022/03/11 11:16:41;;;;;;;1.33;1.00;;;8.00;99.90;;;;;;5032237;28;20430;-72
2022/03/11 11:19:09;;;;;;;1.60;1.10;;;8.10;99.90;;;;;;5032209;28;20396;-72
2022/03/11 11:21:37;;;;;;;4.10;1.30;;;8.10;99.90;;;;;;5032219;28;20078;-72
2022/03/11 11:24:09;;;;;;;1.38;1.00;;;8.10;99.90;;;;;;5031864;28;20021;-73
2022/03/11 11:26:38;;;;;;;1.85;1.13;;;8.10;99.90;;;;;;5032148;28;20068;-73
2022/03/11 11:29:04;;;;;;;4.55;1.38;;;8.10;99.90;;;;;;5031903;28;20033;-74
2022/03/11 11:31:31;;;;;;;2.00;1.40;;;8.10;99.90;;;;;;5031813;28;20022;-72
2022/03/11 11:33:56;;;;;;;1.13;1.00;;;8.10;99.90;;;;;;5031977;28;20766;-73
2022/03/11 11:36:39;;;;;;;1.30;1.20;;;8.20;99.90;;;;;;5031764;28;20029;-73
2022/03/11 11:39:08;;;;;;;2.65;1.35;;;8.20;99.90;;;;;;5031900;28;20097;-73
2022/03/11 11:41:35;;;;;;;1.85;1.35;;;8.20;99.90;;;;;;5031773;28;20125;-74
2022/03/11 11:44:06;;;;;;;1.73;1.38;;;8.20;99.90;;;;;;5031793;28;20669;-73
2022/03/11 11:46:37;;;;;;;2.35;1.30;;;8.20;99.90;;;;;;5031727;28;20033;-73
2022/03/11 11:49:13;;;;;;;4.18;1.60;;;8.30;99.90;;;;;;5031570;28;20079;-74
2022/03/11 11:51:39;;;;;;;3.53;1.50;;;8.30;99.90;;;;;;5031563;28;20123;-74
2022/03/11 11:54:11;;;;;;;1.92;1.20;;;8.30;99.90;;;;;;5031802;28;20026;-73
2022/03/11 11:57:00;;;;;;;1.50;1.00;;;8.30;99.90;;;;;;5030409;28;20037;-73
2022/03/11 11:59:32;;;;;;;5.95;1.27;;;8.40;99.90;;;;;;5031941;28;20058;-73
2022/03/11 12:02:02;;;;;;;1.33;1.23;;;8.40;99.90;;;;;;5031825;28;20384;-73
2022/03/11 12:04:38;;;;;;;2.03;1.17;;;8.40;99.90;;;;;;5031517;28;20033;-73
2022/03/11 12:07:15;;;;;;;2.10;1.20;;;8.40;99.90;;;;;;5031637;28;20256;-72
2022/03/11 12:12:32;;;;;;;1.42;1.33;;;8.40;99.90;;;;;;5031726;28;20022;-73
2022/03/11 12:15:01;;;;;;;1.45;1.00;;;8.50;99.90;;;;;;5031179;28;20017;-73
2022/03/11 12:17:56;;;;;;;2.78;1.48;;;8.50;99.90;;;;;;5031443;28;20048;-73
2022/03/11 12:20:49;;;;;;;1.67;1.17;;;8.50;99.90;;;;;;5035024;28;20485;-73
2022/03/11 12:23:14;;;;;;;2.65;1.35;;;8.50;99.90;;;;;;5031628;28;20029;-73
2022/03/11 12:26:00;;;;;;;1.30;1.17;;;8.60;99.90;;;;;;5031349;28;20040;-73
2022/03/11 12:28:41;;;;;;;1.30;1.20;;;8.60;99.90;;;;;;5031337;28;20032;-73
2022/03/11 12:31:23;;;;;;;1.52;1.30;;;8.60;99.90;;;;;;5031557;28;20038;-73
2022/03/11 12:33:51;;;;;;;1.30;1.00;;;8.60;99.90;;;;;;5036872;28;20021;-73
2022/03/11 12:36:20;;;;;;;3.85;1.33;;;8.60;99.90;;;;;;5054513;28;20025;-73
2022/03/11 12:38:46;;;;;;;1.80;1.25;;;8.60;99.90;;;;;;5055029;28;20029;-74
2022/03/11 12:41:21;;;;;;;8.55;1.30;;;8.60;99.90;;;;;;5055137;28;20412;-73
2022/03/11 12:43:47;;;;;;;1.98;1.23;;;8.60;99.90;;;;;;5048966;28;20029;-72
2022/03/11 12:46:13;;;;;;;2.58;1.20;;;8.60;99.90;;;;;;5034800;28;20366;-69
2022/03/11 12:48:41;;;;;;;3.30;1.20;;;8.60;99.90;;;;;;5034392;28;20061;-68
2022/03/11 12:51:17;;;;;;;1.90;1.27;;;9.60;99.90;;;;;;5034796;28;20021;-70
2022/03/11 12:53:44;;;;;;;2.10;1.30;;;10.10;99.90;;;;;;5034721;28;20025;-69
2022/03/11 12:56:09;;;;;;;1.77;1.30;;;9.80;99.90;;;;;;5035089;28;20022;-69
2022/03/11 12:58:36;;;;;;;3.70;1.80;;;9.50;99.90;;;;;;5034822;28;20227;-69
2022/03/11 13:01:10;;;;;;;1.30;1.20;;;9.30;99.90;;;;;;5034692;28;20021;-70
2022/03/11 13:03:39;;;;;;;1.38;1.27;;;9.20;99.90;;;;;;5034613;28;20024;-69
2022/03/11 13:06:10;;;;;;;3.35;1.40;;;9.10;99.90;;;;;;5034600;28;20480;-69
2022/03/11 13:08:37;;;;;;;2.95;1.58;;;9.00;99.90;;;;;;5034773;28;20124;-69
2022/03/11 13:11:05;;;;;;;2.35;1.50;;;9.00;99.90;;;;;;5033288;28;20427;-69
2022/03/11 13:13:31;;;;;;;3.47;1.42;;;9.00;99.90;;;;;;5033113;28;20534;-69
2022/03/11 13:15:59;;;;;;;3.63;1.65;;;8.90;99.90;;;;;;5034470;28;20022;-69
2022/03/11 13:18:27;;;;;;;1.65;1.40;;;8.90;99.90;;;;;;5032846;28;20511;-70
2022/03/11 13:20:56;;;;;;;2.25;1.33;;;8.90;99.90;;;;;;5034302;28;20641;-69
2022/03/11 13:23:36;;;;;;;3.00;1.73;;;8.90;99.90;;;;;;5034351;28;20057;-70
2022/03/11 13:26:08;;;;;;;2.53;1.40;;;9.40;99.90;;;;;;5034124;28;20029;-69
2022/03/11 13:28:36;;;;;;;1.65;1.48;;;9.50;99.90;;;;;;5033155;28;20045;-72
2022/03/11 13:31:24;;;;;;;1.92;1.30;;;9.40;99.90;;;;;;5034830;28;20029;-72
2022/03/11 13:34:01;;;;;;;3.50;1.50;;;9.20;99.90;;;;;;5048483;28;20495;-72
2022/03/11 13:36:35;;;;;;;1.70;1.25;;;9.10;99.90;;;;;;5053724;28;20029;-71
2022/03/11 13:39:04;;;;;;;2.15;1.55;;;9.00;99.90;;;;;;5053908;28;20027;-74
2022/03/11 13:41:33;;;;;;;1.98;1.65;;;8.90;99.90;;;;;;5053803;28;20599;-74
2022/03/11 13:44:05;;;;;;;2.42;1.65;;;8.90;99.90;;;;;;5053844;28;20510;-73
2022/03/11 13:46:33;;;;;;;2.45;1.60;;;8.90;99.90;;;;;;5053639;28;20109;-73
2022/03/11 13:49:02;;;;;;;2.60;1.67;;;8.90;99.90;;;;;;5053755;28;20131;-73
2022/03/11 13:51:43;;;;;;;2.22;1.60;;;8.90;99.90;;;;;;5053704;28;20017;-74
2022/03/11 13:54:09;;;;;;;4.55;1.90;;;8.90;99.90;;;;;;5053990;28;20040;-73
2022/03/11 13:56:41;;;;;;;3.88;2.00;;;8.90;99.90;;;;;;5053496;28;20029;-73
2022/03/11 13:59:08;;;;;;;4.95;2.10;;;8.90;99.90;;;;;;5053731;28;20040;-73